createdAt,value
2023-02-22T00:01:19.333Z,39.62
2023-02-22T00:03:48.113Z,39.54
2023-02-22T00:06:17.995Z,39.61
2023-02-22T00:08:44.333Z,39.69
2023-02-22T00:11:10.767Z,39.54
2023-02-22T00:13:37.435Z,39.77
2023-02-22T00:16:03.813Z,39.35
2023-02-22T00:18:30.177Z,39.70
2023-02-22T00:20:59.884Z,39.92
2023-02-22T00:23:26.975Z,39.66
2023-02-22T00:25:53.301Z,39.59
2023-02-22T00:28:19.625Z,39.47
2023-02-22T00:30:46.346Z,39.33
2023-02-22T00:33:12.882Z,39.31
2023-02-22T00:35:39.243Z,39.58
2023-02-22T00:38:05.584Z,39.55
2023-02-22T00:40:33.541Z,39.44
2023-02-22T00:43:00.866Z,39.74
2023-02-22T00:45:27.737Z,39.49
2023-02-22T00:47:54.612Z,39.61
2023-02-22T00:50:21.043Z,39.75
2023-02-22T00:52:47.847Z,39.44
2023-02-22T00:55:18.074Z,39.67
2023-02-22T00:57:45.237Z,39.49
2023-02-22T01:00:15.391Z,39.52
2023-02-22T01:02:42.137Z,39.73
2023-02-22T01:05:09.166Z,39.81
2023-02-22T01:07:35.658Z,39.70
2023-02-22T01:10:02.442Z,39.69
2023-02-22T01:12:29.276Z,39.85
2023-02-22T01:14:56.976Z,39.71
2023-02-22T01:17:23.691Z,39.67
2023-02-22T01:19:50.987Z,39.63
2023-02-22T01:22:17.357Z,39.50
2023-02-22T01:24:43.691Z,39.65
2023-02-22T01:27:10.898Z,39.40
2023-02-22T01:29:37.270Z,39.45
2023-02-22T01:32:03.630Z,39.14
2023-02-22T01:34:30.219Z,39.32
2023-02-22T01:36:56.539Z,39.20
2023-02-22T01:39:22.908Z,39.33
2023-02-22T01:41:49.233Z,39.31
2023-02-22T01:44:17.323Z,39.41
2023-02-22T01:46:43.791Z,39.33
2023-02-22T01:49:10.785Z,39.30
2023-02-22T01:51:38.002Z,39.32
2023-02-22T01:54:06.290Z,39.39
2023-02-22T01:56:32.725Z,39.38
2023-02-22T01:59:02.768Z,39.27
2023-02-22T02:01:29.407Z,39.30
2023-02-22T02:03:58.170Z,39.31
2023-02-22T02:06:24.539Z,39.32
2023-02-22T02:08:53.848Z,39.04
2023-02-22T02:11:21.340Z,39.22
2023-02-22T02:13:49.891Z,39.17
2023-02-22T02:16:16.237Z,39.17
2023-02-22T02:18:42.834Z,39.16
2023-02-22T02:21:15.399Z,39.19
2023-02-22T02:23:47.602Z,39.24
2023-02-22T02:26:23.278Z,39.00
2023-02-22T02:28:49.606Z,38.96
2023-02-22T02:31:19.185Z,38.99
2023-02-22T02:33:48.731Z,38.98
2023-02-22T02:36:17.720Z,39.14
2023-02-22T02:38:44.008Z,38.92
2023-02-22T02:41:12.125Z,39.03
2023-02-22T02:43:43.231Z,39.11
2023-02-22T02:46:11.124Z,39.13
2023-02-22T02:48:40.090Z,38.97
2023-02-22T02:51:06.768Z,39.04
2023-02-22T02:53:34.774Z,38.93
2023-02-22T02:56:01.095Z,39.29
2023-02-22T02:58:27.418Z,39.08
2023-02-22T03:00:55.518Z,39.10
2023-02-22T03:03:25.881Z,39.03
2023-02-22T03:06:03.003Z,38.48
2023-02-22T03:08:29.245Z,38.57
2023-02-22T03:10:58.700Z,38.27
2023-02-22T03:13:36.238Z,38.22
2023-02-22T03:16:15.216Z,37.79
2023-02-22T03:18:49.446Z,37.75
2023-02-22T03:21:34.071Z,37.75
2023-02-22T03:24:02.649Z,37.58
2023-02-22T03:26:34.844Z,37.61
2023-02-22T03:29:05.112Z,37.65
2023-02-22T03:31:33.082Z,37.69
2023-02-22T03:34:04.431Z,37.77
2023-02-22T03:36:31.982Z,37.64
2023-02-22T03:38:58.537Z,37.55
2023-02-22T03:41:25.208Z,37.33
2023-02-22T03:43:54.780Z,37.22
2023-02-22T03:46:21.177Z,37.36
2023-02-22T03:48:47.446Z,37.37
2023-02-22T03:51:17.282Z,37.37
2023-02-22T03:53:44.624Z,37.24
2023-02-22T03:56:11.988Z,37.25
2023-02-22T03:58:38.314Z,37.47
2023-02-22T04:01:04.618Z,37.40
2023-02-22T04:03:30.926Z,37.73
2023-02-22T04:05:57.444Z,37.57
2023-02-22T04:08:23.757Z,37.65
2023-02-22T04:10:50.068Z,37.55
2023-02-22T04:13:16.381Z,37.68
2023-02-22T04:15:42.740Z,37.68
2023-02-22T04:18:09.058Z,37.77
2023-02-22T04:20:35.626Z,37.53
2023-02-22T04:23:01.983Z,37.43
2023-02-22T04:25:28.502Z,37.36
2023-02-22T04:27:54.885Z,37.41
2023-02-22T04:30:21.328Z,37.32
2023-02-22T04:32:47.667Z,37.26
2023-02-22T04:35:14.236Z,37.20
2023-02-22T04:37:40.555Z,37.26
2023-02-22T04:40:07.794Z,37.33
2023-02-22T04:42:34.724Z,37.45
2023-02-22T04:45:01.051Z,37.43
2023-02-22T04:47:27.577Z,37.35
2023-02-22T04:49:53.898Z,37.43
2023-02-22T04:52:20.200Z,37.23
2023-02-22T04:54:46.816Z,37.06
2023-02-22T04:57:13.122Z,37.17
2023-02-22T04:59:40.641Z,37.00
2023-02-22T05:02:06.980Z,37.05
2023-02-22T05:04:33.363Z,36.99
2023-02-22T05:06:59.694Z,37.08
2023-02-22T05:09:26.031Z,37.20
2023-02-22T05:11:52.352Z,37.03
2023-02-22T05:14:18.676Z,37.09
2023-02-22T05:16:44.985Z,37.23
2023-02-22T05:19:11.342Z,37.13
2023-02-22T05:21:37.682Z,37.29
2023-02-22T05:24:04.293Z,37.30
2023-02-22T05:26:30.610Z,37.08
2023-02-22T05:28:56.921Z,37.25
2023-02-22T05:31:23.362Z,36.90
2023-02-22T05:33:49.751Z,37.18
2023-02-22T05:36:16.767Z,37.04
2023-02-22T05:38:44.703Z,36.78
2023-02-22T05:41:11.267Z,36.83
2023-02-22T05:43:37.892Z,37.12
2023-02-22T05:46:04.516Z,36.91
2023-02-22T05:48:31.206Z,37.23
2023-02-22T05:50:57.728Z,37.28
2023-02-22T05:53:24.239Z,37.21
2023-02-22T05:55:50.945Z,37.22
2023-02-22T05:58:17.249Z,37.03
2023-02-22T06:00:43.588Z,37.00
2023-02-22T06:03:10.129Z,37.09
2023-02-22T06:05:36.797Z,36.86
2023-02-22T06:08:03.190Z,36.80
2023-02-22T06:10:29.510Z,37.00
2023-02-22T06:12:55.845Z,36.95
2023-02-22T06:15:22.657Z,36.93
2023-02-22T06:17:49.012Z,36.90
2023-02-22T06:20:15.947Z,37.11
2023-02-22T06:22:42.277Z,37.05
2023-02-22T06:25:08.722Z,37.12
2023-02-22T06:27:35.094Z,37.12
2023-02-22T06:30:01.408Z,36.97
2023-02-22T06:32:27.752Z,37.06
2023-02-22T06:34:54.108Z,36.87
2023-02-22T06:37:20.432Z,36.94
2023-02-22T06:39:46.750Z,36.80
2023-02-22T06:42:13.088Z,36.92
2023-02-22T06:44:39.429Z,36.99
2023-02-22T06:47:05.731Z,37.10
2023-02-22T06:49:32.069Z,36.82
2023-02-22T06:51:58.379Z,37.21
2023-02-22T06:54:24.780Z,37.09
2023-02-22T06:56:51.111Z,37.32
2023-02-22T06:59:17.428Z,37.25
2023-02-22T07:01:43.773Z,37.28
2023-02-22T07:04:10.341Z,37.09
2023-02-22T07:06:36.769Z,37.10
2023-02-22T07:09:03.317Z,37.02
2023-02-22T07:11:29.633Z,36.93
2023-02-22T07:13:55.954Z,36.87
2023-02-22T07:16:22.285Z,36.78
2023-02-22T07:18:48.605Z,36.75
2023-02-22T07:21:15.327Z,37.02
2023-02-22T07:23:41.830Z,36.89
2023-02-22T07:26:08.141Z,36.88
2023-02-22T07:28:34.448Z,36.76
2023-02-22T07:31:01.408Z,36.61
2023-02-22T07:33:27.766Z,36.79
2023-02-22T07:35:54.085Z,36.84
2023-02-22T07:38:21.034Z,36.78
2023-02-22T07:40:47.395Z,36.78
2023-02-22T07:43:13.981Z,36.80
2023-02-22T07:45:40.342Z,36.88
2023-02-22T07:48:06.673Z,36.94
2023-02-22T07:50:33.227Z,37.15
2023-02-22T07:53:00.031Z,36.61
2023-02-22T07:55:27.494Z,36.65
2023-02-22T07:57:54.417Z,36.33
2023-02-22T08:00:24.467Z,36.34
2023-02-22T08:02:50.973Z,36.31
2023-02-22T08:05:17.434Z,36.38
2023-02-22T08:07:43.734Z,36.40
2023-02-22T08:10:10.116Z,36.66
2023-02-22T08:12:36.635Z,36.94
2023-02-22T08:15:03.678Z,36.95
2023-02-22T08:17:30.002Z,37.14
2023-02-22T08:19:56.318Z,37.15
2023-02-22T08:22:22.741Z,37.23
2023-02-22T08:24:49.203Z,37.06
2023-02-22T08:27:15.533Z,36.99
2023-02-22T08:29:41.851Z,37.10
2023-02-22T08:32:08.287Z,36.89
2023-02-22T08:34:34.646Z,36.88
2023-02-22T08:37:00.989Z,37.00
2023-02-22T08:39:27.313Z,37.08
2023-02-22T08:41:53.664Z,37.06
2023-02-22T08:44:19.981Z,37.18
2023-02-22T08:46:46.322Z,37.36
2023-02-22T08:49:12.680Z,36.97
2023-02-22T08:51:39.006Z,36.87
2023-02-22T08:54:06.794Z,36.91
2023-02-22T08:56:33.383Z,36.93
2023-02-22T08:58:59.739Z,36.92
2023-02-22T09:01:32.927Z,37.04
2023-02-22T09:03:59.620Z,36.92
2023-02-22T09:06:25.972Z,36.73
2023-02-22T09:08:52.333Z,36.72
2023-02-22T09:11:18.864Z,36.77
2023-02-22T09:13:45.292Z,36.79
2023-02-22T09:16:11.659Z,36.47
2023-02-22T09:18:44.013Z,36.56
2023-02-22T09:21:11.739Z,36.46
2023-02-22T09:23:38.060Z,36.32
2023-02-22T09:26:04.430Z,36.15
2023-02-22T09:28:30.745Z,36.40
2023-02-22T09:30:57.042Z,36.15
2023-02-22T09:33:23.592Z,36.13
2023-02-22T09:35:50.142Z,36.19
2023-02-22T09:38:20.223Z,36.19
2023-02-22T09:40:50.000Z,36.04
2023-02-22T09:43:28.562Z,35.73
2023-02-22T09:46:01.112Z,35.71
2023-02-22T09:48:27.437Z,35.69
2023-02-22T09:50:53.823Z,35.87
2023-02-22T09:53:30.605Z,35.78
2023-02-22T09:55:59.289Z,35.73
2023-02-22T09:58:33.320Z,35.54
2023-02-22T10:01:09.229Z,35.82
2023-02-22T10:03:36.820Z,35.68
2023-02-22T10:06:04.441Z,35.48
2023-02-22T10:08:33.192Z,35.53
2023-02-22T10:11:22.770Z,35.98
2023-02-22T10:13:52.065Z,36.23
2023-02-22T10:16:24.190Z,36.46
2023-02-22T10:18:50.446Z,36.12
2023-02-22T10:21:30.742Z,36.27
2023-02-22T10:24:10.522Z,36.29
2023-02-22T10:26:37.561Z,36.30
2023-02-22T10:29:22.093Z,36.27
2023-02-22T10:31:52.349Z,36.20
2023-02-22T10:34:29.375Z,36.24
2023-02-22T10:36:57.705Z,36.23
2023-02-22T10:39:28.087Z,36.38
2023-02-22T10:41:55.712Z,36.19
2023-02-22T10:44:22.009Z,36.29
2023-02-22T10:46:48.333Z,36.30
2023-02-22T10:49:21.551Z,36.29
2023-02-22T10:52:01.178Z,36.31
2023-02-22T10:54:34.169Z,36.53
2023-02-22T10:57:00.495Z,36.40
2023-02-22T10:59:36.962Z,36.52
2023-02-22T11:02:17.523Z,36.49
2023-02-22T11:04:44.719Z,38.95
2023-02-22T11:07:18.140Z,38.89
2023-02-22T11:09:45.403Z,37.74
2023-02-22T11:12:15.715Z,37.44
2023-02-22T11:14:42.546Z,36.87
2023-02-22T11:17:08.854Z,36.90
2023-02-22T11:19:38.170Z,36.84
2023-02-22T11:22:11.891Z,36.61
2023-02-22T11:24:49.228Z,36.91
2023-02-22T11:27:36.153Z,36.80
2023-02-22T11:30:08.471Z,36.73
2023-02-22T11:32:36.417Z,36.84
2023-02-22T11:35:19.896Z,36.56
2023-02-22T11:37:47.032Z,36.17
2023-02-22T11:40:13.299Z,35.92
2023-02-22T11:42:39.600Z,35.87
2023-02-22T11:45:12.942Z,35.97
2023-02-22T11:47:55.328Z,36.06
2023-02-22T11:50:23.971Z,36.19
2023-02-22T11:52:51.590Z,36.35
2023-02-22T11:55:36.372Z,36.44
2023-02-22T11:58:08.362Z,36.39
2023-02-22T12:00:34.585Z,36.41
2023-02-22T12:03:00.793Z,36.18
2023-02-22T12:05:34.120Z,35.90
2023-02-22T12:08:19.850Z,36.27
2023-02-22T12:10:49.984Z,35.94
2023-02-22T12:13:28.586Z,36.03
2023-02-22T12:15:56.230Z,36.04
2023-02-22T12:18:34.793Z,35.83
2023-02-22T12:21:02.101Z,36.17
2023-02-22T12:23:34.465Z,35.99
2023-02-22T12:26:05.610Z,36.09
2023-02-22T12:28:36.620Z,36.01
2023-02-22T12:31:05.238Z,35.75
2023-02-22T12:33:42.541Z,35.68
2023-02-22T12:36:09.377Z,35.88
2023-02-22T12:38:46.850Z,35.96
2023-02-22T12:41:18.317Z,35.92
2023-02-22T12:43:52.251Z,35.92
2023-02-22T12:46:23.246Z,35.92
2023-02-22T12:49:08.383Z,35.74
2023-02-22T12:51:51.453Z,36.03
2023-02-22T12:54:32.196Z,35.94
2023-02-22T12:57:17.023Z,35.93
2023-02-22T12:59:46.149Z,35.76
2023-02-22T13:02:17.492Z,35.78
2023-02-22T13:04:43.820Z,35.84
2023-02-22T13:07:11.647Z,35.59
2023-02-22T13:09:50.463Z,35.76
2023-02-22T13:12:19.098Z,35.56
2023-02-22T13:14:48.392Z,35.70
2023-02-22T13:17:33.600Z,35.71
2023-02-22T13:20:01.437Z,35.65
2023-02-22T13:22:46.784Z,35.78
2023-02-22T13:25:14.331Z,35.92
2023-02-22T13:27:42.889Z,35.88
2023-02-22T13:30:16.920Z,35.90
2023-02-22T13:33:02.109Z,35.79
2023-02-22T13:35:38.742Z,35.77
2023-02-22T13:38:08.342Z,35.92
2023-02-22T13:40:40.535Z,35.98
2023-02-22T13:43:15.895Z,36.00
2023-02-22T13:45:46.478Z,35.74
2023-02-22T13:48:12.794Z,36.04
2023-02-22T13:50:47.214Z,36.07
2023-02-22T13:53:26.735Z,35.89
2023-02-22T13:55:53.704Z,35.83
2023-02-22T13:58:20.933Z,35.88
2023-02-22T14:00:55.753Z,35.97
2023-02-22T14:03:23.983Z,35.92
2023-02-22T14:05:51.422Z,35.97
2023-02-22T14:08:18.835Z,36.02
2023-02-22T14:10:46.413Z,36.22
2023-02-22T14:13:13.139Z,36.11
2023-02-22T14:15:57.937Z,35.97
2023-02-22T14:18:24.731Z,36.22
2023-02-22T14:21:06.932Z,36.08
2023-02-22T14:23:42.852Z,36.20
2023-02-22T14:26:10.793Z,36.08
2023-02-22T14:28:38.648Z,36.09
2023-02-22T14:31:05.971Z,35.98
2023-02-22T14:33:51.429Z,36.15
2023-02-22T14:36:19.236Z,36.16
2023-02-22T14:38:45.720Z,36.41
2023-02-22T14:41:12.432Z,36.41
2023-02-22T14:43:38.754Z,36.35
2023-02-22T14:46:05.313Z,36.51
2023-02-22T14:48:39.324Z,36.53
2023-02-22T14:51:20.166Z,36.38
2023-02-22T14:53:48.707Z,36.59
2023-02-22T14:56:21.062Z,36.72
2023-02-22T15:01:33.918Z,36.62
2023-02-22T15:04:19.331Z,36.67
2023-02-22T15:06:46.715Z,36.83
2023-02-22T15:09:28.929Z,37.05
2023-02-22T15:12:05.208Z,37.17
2023-02-22T15:14:33.031Z,36.89
2023-02-22T15:17:00.413Z,36.93
2023-02-22T15:19:27.261Z,37.09
2023-02-22T15:21:54.143Z,36.86
2023-02-22T15:24:27.355Z,36.97
2023-02-22T15:27:01.914Z,37.00
2023-02-22T15:29:36.347Z,36.96
2023-02-22T15:32:02.673Z,37.03
2023-02-22T15:34:30.066Z,37.27
2023-02-22T15:36:57.583Z,37.17
2023-02-22T15:39:29.483Z,37.17
2023-02-22T15:42:03.112Z,37.22
2023-02-22T15:44:29.443Z,37.04
2023-02-22T15:46:56.579Z,37.06
2023-02-22T15:49:23.419Z,37.33
2023-02-22T15:51:54.391Z,37.45
2023-02-22T15:54:27.550Z,37.21
2023-02-22T15:56:56.394Z,37.40
2023-02-22T15:59:28.837Z,37.35
2023-02-22T16:01:55.267Z,37.22
2023-02-22T16:04:22.368Z,37.48
2023-02-22T16:06:48.773Z,37.09
2023-02-22T16:09:15.923Z,37.30
2023-02-22T16:11:44.080Z,37.48
2023-02-22T16:14:28.898Z,37.42
2023-02-22T16:17:11.333Z,37.68
2023-02-22T16:19:42.758Z,37.41
2023-02-22T16:22:22.772Z,37.35
2023-02-22T16:24:52.198Z,37.17
2023-02-22T16:27:19.156Z,37.27
2023-02-22T16:30:00.702Z,37.36
2023-02-22T16:32:27.069Z,37.26
2023-02-22T16:34:53.437Z,37.38
2023-02-22T16:37:22.110Z,37.31
2023-02-22T16:39:51.668Z,37.43
2023-02-22T16:42:23.971Z,37.18
2023-02-22T16:44:50.928Z,37.41
2023-02-22T16:47:17.232Z,37.54
2023-02-22T16:49:43.543Z,37.30
2023-02-22T16:52:09.932Z,37.44
2023-02-22T16:54:38.180Z,37.59
2023-02-22T16:57:04.623Z,37.31
2023-02-22T16:59:40.042Z,37.23
2023-02-22T17:02:09.254Z,37.38
2023-02-22T17:04:35.647Z,37.16
2023-02-22T17:07:04.975Z,37.25
2023-02-22T17:09:31.587Z,36.97
2023-02-22T17:11:57.944Z,37.51
2023-02-22T17:14:25.074Z,37.09
2023-02-22T17:16:51.399Z,37.45
2023-02-22T17:19:18.628Z,37.10
2023-02-22T17:21:44.959Z,37.60
2023-02-22T17:24:14.526Z,37.91
2023-02-22T17:26:41.158Z,38.30
2023-02-22T17:29:07.476Z,37.98
2023-02-22T17:31:33.907Z,37.98
2023-02-22T17:34:03.420Z,39.18
2023-02-22T17:36:30.030Z,38.94
2023-02-22T17:38:56.632Z,38.68
2023-02-22T17:41:22.945Z,39.21
2023-02-22T17:43:49.256Z,39.13
2023-02-22T17:46:15.822Z,39.14
2023-02-22T17:48:42.550Z,39.65
2023-02-22T17:51:09.581Z,39.55
2023-02-22T17:53:35.904Z,40.22
2023-02-22T17:56:06.367Z,40.06
2023-02-22T17:58:32.792Z,39.54
2023-02-22T18:00:59.246Z,39.60
2023-02-22T18:03:26.420Z,40.03
2023-02-22T18:05:59.421Z,39.81
2023-02-22T18:08:26.200Z,40.49
2023-02-22T18:10:56.226Z,39.78
2023-02-22T18:15:49.540Z,39.65
2023-02-22T18:18:17.602Z,40.21
2023-02-22T18:20:44.541Z,40.25
2023-02-22T18:23:14.363Z,40.26
2023-02-22T18:25:41.540Z,40.25
2023-02-22T18:28:07.914Z,40.31
2023-02-22T18:30:35.854Z,40.76
2023-02-22T18:33:03.521Z,40.62
2023-02-22T18:35:29.937Z,40.31
2023-02-22T18:37:56.273Z,40.40
2023-02-22T18:40:23.787Z,40.44
2023-02-22T18:42:50.097Z,40.89
2023-02-22T18:45:17.152Z,41.03
2023-02-22T18:47:43.682Z,40.96
2023-02-22T18:50:10.110Z,40.98
2023-02-22T18:52:44.714Z,40.91
2023-02-22T18:55:12.044Z,40.55
2023-02-22T18:57:38.368Z,39.39
2023-02-22T19:00:07.548Z,40.60
2023-02-22T19:02:34.043Z,40.39
2023-02-22T19:05:00.478Z,40.47
2023-02-22T19:07:27.086Z,40.22
2023-02-22T19:09:53.468Z,39.64
2023-02-22T19:12:19.831Z,39.61
2023-02-22T19:14:46.196Z,39.32
2023-02-22T19:17:16.124Z,39.82
2023-02-22T19:19:43.369Z,39.38
2023-02-22T19:22:10.204Z,39.65
2023-02-22T19:24:36.939Z,39.45
2023-02-22T19:27:05.264Z,39.50
2023-02-22T19:29:31.593Z,39.64
2023-02-22T19:31:58.058Z,39.77
2023-02-22T19:34:26.326Z,39.40
2023-02-22T19:36:52.696Z,39.80
2023-02-22T19:39:19.625Z,39.56
2023-02-22T19:41:46.123Z,39.99
2023-02-22T19:44:12.476Z,40.42
2023-02-22T19:46:38.823Z,40.11
2023-02-22T19:49:05.226Z,40.11
2023-02-22T19:51:31.800Z,40.52
2023-02-22T19:54:02.479Z,40.60
2023-02-22T19:56:30.503Z,40.21
2023-02-22T19:59:01.221Z,40.49
2023-02-22T20:01:29.186Z,40.45
2023-02-22T20:04:00.020Z,40.82
2023-02-22T20:06:28.155Z,40.70
2023-02-22T20:08:54.878Z,40.77
2023-02-22T20:11:21.449Z,40.91
2023-02-22T20:13:47.776Z,40.90
2023-02-22T20:16:17.237Z,41.02
2023-02-22T20:18:43.972Z,40.80
2023-02-22T20:21:10.864Z,40.76
2023-02-22T20:23:40.117Z,40.59
2023-02-22T20:26:07.883Z,40.95
2023-02-22T20:28:34.188Z,40.54
2023-02-22T20:31:00.558Z,40.92
2023-02-22T20:33:27.053Z,40.45
2023-02-22T20:35:53.551Z,40.63
2023-02-22T20:38:19.852Z,40.64
2023-02-22T20:40:46.813Z,40.46
2023-02-22T20:43:13.135Z,40.46
2023-02-22T20:45:39.506Z,40.52
2023-02-22T20:48:05.908Z,40.66
2023-02-22T20:50:33.087Z,40.63
2023-02-22T20:52:59.405Z,40.45
2023-02-22T20:55:25.795Z,40.82
2023-02-22T20:57:52.102Z,40.52
2023-02-22T21:00:18.464Z,40.52
2023-02-22T21:02:46.669Z,40.51
2023-02-22T21:05:13.421Z,40.75
2023-02-22T21:07:39.776Z,40.62
2023-02-22T21:10:06.591Z,40.78
2023-02-22T21:12:33.172Z,40.75
2023-02-22T21:14:59.532Z,40.79
2023-02-22T21:17:30.687Z,40.66
2023-02-22T21:19:57.310Z,41.07
2023-02-22T21:22:25.085Z,40.82
2023-02-22T21:24:51.521Z,41.00
2023-02-22T21:27:17.828Z,40.93
2023-02-22T21:29:44.133Z,40.80
2023-02-22T21:32:10.610Z,40.79
2023-02-22T21:34:37.108Z,41.20
2023-02-22T21:37:07.903Z,41.13
2023-02-22T21:39:35.221Z,41.12
2023-02-22T21:42:01.545Z,41.18
2023-02-22T21:44:28.085Z,41.13
2023-02-22T21:46:54.481Z,41.27
2023-02-22T21:49:22.727Z,41.13
2023-02-22T21:51:49.222Z,41.02
2023-02-22T21:54:16.760Z,40.93
2023-02-22T21:56:43.327Z,40.81
2023-02-22T21:59:18.732Z,40.94
2023-02-22T22:01:49.785Z,41.10
2023-02-22T22:04:20.319Z,41.17
2023-02-22T22:06:47.720Z,41.07
2023-02-22T22:09:19.924Z,41.09
2023-02-22T22:11:50.083Z,40.66
2023-02-22T22:14:17.675Z,40.60
2023-02-22T22:16:46.763Z,40.92
2023-02-22T22:19:13.076Z,40.98
2023-02-22T22:21:39.410Z,40.53
2023-02-22T22:24:07.036Z,40.92
2023-02-22T22:26:33.913Z,41.07
2023-02-22T22:29:00.718Z,40.91
2023-02-22T22:31:27.345Z,40.99
2023-02-22T22:33:54.202Z,40.74
2023-02-22T22:36:21.393Z,40.77
2023-02-22T22:38:47.777Z,40.69
2023-02-22T22:41:14.359Z,40.69
2023-02-22T22:43:41.304Z,40.93
2023-02-22T22:46:07.981Z,40.67
2023-02-22T22:48:36.067Z,40.75
2023-02-22T22:51:03.448Z,40.92
2023-02-22T22:53:30.618Z,40.86
2023-02-22T22:56:00.647Z,40.90
2023-02-22T22:58:26.957Z,40.81
2023-02-22T23:00:59.636Z,40.78
2023-02-22T23:03:26.488Z,40.72
2023-02-22T23:05:52.864Z,40.64
2023-02-22T23:08:20.751Z,40.74
2023-02-22T23:10:47.082Z,40.73
2023-02-22T23:13:15.530Z,40.80
2023-02-22T23:15:42.856Z,40.53
2023-02-22T23:18:09.411Z,40.78
2023-02-22T23:20:38.901Z,40.70
2023-02-22T23:23:06.009Z,40.52
2023-02-22T23:25:38.840Z,40.71
2023-02-22T23:28:14.454Z,40.58
2023-02-22T23:30:41.243Z,40.71
2023-02-22T23:33:07.755Z,40.73
2023-02-22T23:35:34.071Z,40.39
2023-02-22T23:38:00.398Z,40.49
2023-02-22T23:40:26.717Z,40.79
2023-02-22T23:42:56.115Z,40.73
2023-02-22T23:45:22.783Z,40.54
2023-02-22T23:47:54.499Z,40.37
2023-02-22T23:50:23.013Z,40.53
2023-02-22T23:52:50.187Z,40.51
2023-02-22T23:55:20.661Z,40.16
2023-02-22T23:57:47.287Z,40.12
